Time;durP1;ratioP1;P1;durP2;ratioP2;P2;SDS_P1;SDS_P2;PMS_P1;PMS_P2;Temp;Humidity;BMP_temperature;BMP_pressure;BME280_temperature;BME280_humidity;BME280_pressure;Samples;Min_cycle;Max_cycle;Signal;HPM_P1;HPM_P2
2021/10/22 00:01:41;;;;;;;20.30;2.15;;;;;;;;;;5060732;28;20120;-75
2021/10/22 00:04:08;;;;;;;13.43;2.00;;;;;;;;;;5063865;28;20049;-76
2021/10/22 00:06:34;;;;;;;12.88;2.17;;;;;;;;;;5067697;28;20496;-75
2021/10/22 00:09:00;;;;;;;17.60;1.83;;;;;;;;;;5067656;28;20045;-76
2021/10/22 00:11:26;;;;;;;16.15;1.80;;;;;;;;;;5049696;28;20037;-76
2021/10/22 00:13:52;;;;;;;22.13;4.38;;;;;;;;;;5048926;28;20408;-76
2021/10/22 00:16:18;;;;;;;19.73;2.35;;;;;;;;;;5067619;28;20057;-76
2021/10/22 00:18:45;;;;;;;17.70;1.95;;;;;;;;;;5067078;28;20043;-76
2021/10/22 00:21:11;;;;;;;18.92;2.40;;;;;;;;;;5066134;28;20254;-76
2021/10/22 00:23:37;;;;;;;12.70;2.20;;;;;;;;;;5068292;28;20527;-75
2021/10/22 00:26:03;;;;;;;17.63;2.60;;;;;;;;;;5065375;28;20516;-76
2021/10/22 00:28:29;;;;;;;12.68;1.60;;;;;;;;;;5052311;28;20388;-76
2021/10/22 00:30:56;;;;;;;16.33;2.40;;;;;;;;;;5066898;28;20048;-76
2021/10/22 00:33:22;;;;;;;19.83;2.70;;;;;;;;;;5051385;28;20057;-76
2021/10/22 00:35:49;;;;;;;15.38;1.80;;;;;;;;;;5065143;28;20052;-76
2021/10/22 00:38:15;;;;;;;17.77;2.00;;;;;;;;;;5066819;28;20102;-76
2021/10/22 00:40:41;;;;;;;12.38;2.05;;;;;;;;;;5051148;28;20041;-76
2021/10/22 00:43:07;;;;;;;14.13;2.20;;;;;;;;;;5050451;28;20052;-76
2021/10/22 00:45:33;;;;;;;15.55;1.90;;;;;;;;;;5066074;28;20049;-76
2021/10/22 00:47:59;;;;;;;16.27;2.20;;;;;;;;;;5066477;28;20080;-76
2021/10/22 00:50:27;;;;;;;19.95;2.22;;;;;;;;;;5063543;28;20045;-76
2021/10/22 00:52:53;;;;;;;16.73;2.50;;;;;;;;;;5050264;28;20048;-77
2021/10/22 00:55:20;;;;;;;22.67;3.00;;;;;;;;;;5049368;28;20389;-76
2021/10/22 00:57:46;;;;;;;24.05;4.13;;;;;;;;;;5050804;28;20064;-76
2021/10/22 01:00:12;;;;;;;22.30;2.53;;;;;;;;;;5049735;28;20499;-77
2021/10/22 01:02:39;;;;;;;11.95;2.22;;;;;;;;;;5064635;28;20075;-76
2021/10/22 01:05:09;;;;;;;19.45;2.63;;;;;;;;;;5047643;28;20053;-76
2021/10/22 01:07:38;;;;;;;14.93;2.42;;;;;;;;;;5044919;28;20048;-76
2021/10/22 01:10:04;;;;;;;17.88;2.33;;;;;;;;;;5065247;28;20131;-76
2021/10/22 01:12:31;;;;;;;20.05;2.28;;;;;;;;;;5059741;28;20060;-76
2021/10/22 01:14:57;;;;;;;14.82;2.22;;;;;;;;;;5048059;28;20059;-76
2021/10/22 01:17:39;;;;;;;13.88;2.47;;;;;;;;;;5048856;28;20124;-76
2021/10/22 01:20:07;;;;;;;19.83;2.25;;;;;;;;;;5065862;28;20053;-76
2021/10/22 01:22:33;;;;;;;13.45;2.72;;;;;;;;;;5065801;28;20163;-76
2021/10/22 01:24:59;;;;;;;14.77;2.25;;;;;;;;;;5065160;28;20118;-76
2021/10/22 01:27:25;;;;;;;12.60;2.03;;;;;;;;;;5050473;28;20152;-76
2021/10/22 01:29:51;;;;;;;15.60;2.47;;;;;;;;;;5065305;28;20041;-76
2021/10/22 01:32:17;;;;;;;18.80;2.45;;;;;;;;;;5065362;28;20405;-76
2021/10/22 01:34:44;;;;;;;11.75;2.97;;;;;;;;;;5049879;28;20539;-76
2021/10/22 01:37:10;;;;;;;15.70;2.22;;;;;;;;;;5049330;28;20065;-77
2021/10/22 01:39:36;;;;;;;12.10;2.50;;;;;;;;;;5064549;28;20040;-76
2021/10/22 01:42:03;;;;;;;14.43;2.15;;;;;;;;;;5064011;28;20431;-76
2021/10/22 01:44:29;;;;;;;17.17;3.22;;;;;;;;;;5048914;28;20071;-76
2021/10/22 01:46:55;;;;;;;9.20;2.20;;;;;;;;;;5081991;28;20048;-76
2021/10/22 01:49:21;;;;;;;8.95;1.88;;;;;;;;;;5047785;28;20055;-76
2021/10/22 01:51:47;;;;;;;12.90;1.83;;;;;;;;;;5062907;28;20044;-76
2021/10/22 01:54:13;;;;;;;16.75;2.30;;;;;;;;;;5049013;28;20045;-76
2021/10/22 01:56:39;;;;;;;16.83;2.15;;;;;;;;;;5064437;28;20072;-76
2021/10/22 01:59:05;;;;;;;16.63;3.42;;;;;;;;;;5032037;28;20108;-76
2021/10/22 02:01:31;;;;;;;13.48;2.58;;;;;;;;;;5048432;28;20394;-76
2021/10/22 02:03:57;;;;;;;18.98;2.40;;;;;;;;;;5048671;28;20053;-76
2021/10/22 02:06:23;;;;;;;23.23;3.10;;;;;;;;;;5064816;28;20508;-76
2021/10/22 02:08:50;;;;;;;11.38;1.98;;;;;;;;;;5047124;28;20059;-75
2021/10/22 02:11:16;;;;;;;17.65;2.55;;;;;;;;;;5063339;28;20049;-76
2021/10/22 02:13:42;;;;;;;15.32;2.53;;;;;;;;;;5049114;28;20455;-76
2021/10/22 02:16:08;;;;;;;15.60;2.20;;;;;;;;;;5062477;28;20110;-76
2021/10/22 02:18:34;;;;;;;18.92;3.08;;;;;;;;;;5065895;28;20052;-76
2021/10/22 02:21:00;;;;;;;20.08;2.70;;;;;;;;;;5044974;28;20133;-76
2021/10/22 02:23:26;;;;;;;13.07;2.30;;;;;;;;;;5064689;28;20129;-76
2021/10/22 02:25:52;;;;;;;14.63;3.35;;;;;;;;;;5063603;28;20052;-76
2021/10/22 02:28:18;;;;;;;18.92;2.42;;;;;;;;;;5048117;28;20479;-76
2021/10/22 02:30:45;;;;;;;16.98;2.20;;;;;;;;;;5046668;28;20443;-76
2021/10/22 02:33:12;;;;;;;12.65;2.75;;;;;;;;;;5045687;28;20041;-76
2021/10/22 02:35:39;;;;;;;11.70;2.30;;;;;;;;;;5048840;28;20041;-75
2021/10/22 02:38:05;;;;;;;12.68;2.00;;;;;;;;;;5063145;28;20067;-76
2021/10/22 02:40:31;;;;;;;12.52;2.15;;;;;;;;;;5063122;28;20449;-76
2021/10/22 02:42:57;;;;;;;17.23;2.85;;;;;;;;;;5063755;28;20057;-76
2021/10/22 02:45:23;;;;;;;11.32;2.53;;;;;;;;;;5079102;28;20654;-76
2021/10/22 02:47:49;;;;;;;17.02;2.20;;;;;;;;;;5048547;28;20562;-76
2021/10/22 02:50:18;;;;;;;13.32;2.05;;;;;;;;;;5064421;28;20377;-76
2021/10/22 02:52:44;;;;;;;16.27;2.58;;;;;;;;;;5063331;28;20485;-76
2021/10/22 02:55:10;;;;;;;19.17;2.30;;;;;;;;;;5062296;28;20095;-76
2021/10/22 02:57:36;;;;;;;20.73;2.45;;;;;;;;;;5065216;28;20056;-76
2021/10/22 03:00:04;;;;;;;14.63;2.33;;;;;;;;;;5045816;28;20442;-76
2021/10/22 03:02:30;;;;;;;11.88;2.10;;;;;;;;;;5062682;28;20498;-76
2021/10/22 03:04:56;;;;;;;17.77;2.13;;;;;;;;;;5031345;28;20474;-74
2021/10/22 03:07:22;;;;;;;13.27;2.58;;;;;;;;;;5063394;28;20071;-76
2021/10/22 03:09:48;;;;;;;11.60;2.15;;;;;;;;;;5078832;28;20045;-76
2021/10/22 03:12:14;;;;;;;18.35;2.70;;;;;;;;;;5061929;28;20182;-76
2021/10/22 03:14:40;;;;;;;18.00;2.55;;;;;;;;;;5064472;28;20063;-76
2021/10/22 03:17:07;;;;;;;16.17;2.20;;;;;;;;;;5062994;28;20048;-76
2021/10/22 03:19:33;;;;;;;13.05;2.50;;;;;;;;;;5063041;28;20055;-76
2021/10/22 03:21:59;;;;;;;20.45;3.00;;;;;;;;;;5062023;28;20565;-76
2021/10/22 03:24:25;;;;;;;17.15;2.72;;;;;;;;;;5046995;28;20041;-76
2021/10/22 03:26:51;;;;;;;16.13;2.20;;;;;;;;;;5047974;28;20485;-76
2021/10/22 03:29:19;;;;;;;11.88;2.53;;;;;;;;;;5063719;28;20480;-75
2021/10/22 03:31:47;;;;;;;16.38;2.67;;;;;;;;;;5063418;28;20107;-75
2021/10/22 03:34:13;;;;;;;14.07;2.70;;;;;;;;;;5057705;28;20485;-75
2021/10/22 03:36:40;;;;;;;12.48;2.15;;;;;;;;;;5062662;28;20044;-76
2021/10/22 03:39:06;;;;;;;15.18;2.25;;;;;;;;;;5078736;28;20477;-76
2021/10/22 03:41:32;;;;;;;14.07;2.60;;;;;;;;;;5065536;28;20045;-76
2021/10/22 03:43:58;;;;;;;19.42;3.40;;;;;;;;;;5046105;28;20048;-75
2021/10/22 03:46:24;;;;;;;14.52;2.08;;;;;;;;;;5062604;28;20037;-75
2021/10/22 03:48:50;;;;;;;13.48;1.90;;;;;;;;;;5060961;28;20404;-76
2021/10/22 03:51:16;;;;;;;10.20;2.75;;;;;;;;;;5044116;28;20049;-76
2021/10/22 03:53:43;;;;;;;13.50;1.83;;;;;;;;;;5061283;28;20473;-75
2021/10/22 03:56:09;;;;;;;14.63;1.98;;;;;;;;;;5047249;28;20452;-76
2021/10/22 03:58:36;;;;;;;14.57;2.13;;;;;;;;;;5063939;28;20055;-75
2021/10/22 04:01:02;;;;;;;17.52;2.40;;;;;;;;;;5063109;28;20044;-76
2021/10/22 04:03:28;;;;;;;16.88;1.98;;;;;;;;;;5062853;28;20045;-76
2021/10/22 04:05:54;;;;;;;18.90;2.20;;;;;;;;;;5063771;28;20088;-76
2021/10/22 04:08:21;;;;;;;14.27;2.40;;;;;;;;;;5061207;28;20056;-75
2021/10/22 04:10:47;;;;;;;13.65;2.40;;;;;;;;;;5063721;28;20064;-75
2021/10/22 04:13:14;;;;;;;13.32;2.58;;;;;;;;;;5061870;28;20412;-75
2021/10/22 04:15:41;;;;;;;14.13;2.33;;;;;;;;;;5041301;28;20048;-76
2021/10/22 04:18:08;;;;;;;17.42;2.78;;;;;;;;;;5047600;28;20106;-75
2021/10/22 04:20:34;;;;;;;16.83;2.70;;;;;;;;;;5060515;28;20060;-75
2021/10/22 04:23:00;;;;;;;13.75;2.10;;;;;;;;;;5062225;28;20541;-75
2021/10/22 04:25:27;;;;;;;15.48;2.67;;;;;;;;;;5059900;28;20076;-75
2021/10/22 04:27:53;;;;;;;11.48;1.85;;;;;;;;;;5048384;28;20041;-76
2021/10/22 04:30:19;;;;;;;15.90;3.15;;;;;;;;;;5047372;28;20049;-75
2021/10/22 04:32:45;;;;;;;12.65;2.10;;;;;;;;;;5045438;28;20041;-76
2021/10/22 04:35:11;;;;;;;12.48;2.45;;;;;;;;;;5062599;28;20037;-76
2021/10/22 04:40:32;;;;;;;18.98;2.83;;;;;;;;;;5047995;28;20045;-75
2021/10/22 04:43:02;;;;;;;16.50;2.25;;;;;;;;;;5067730;28;20060;-75
2021/10/22 04:45:29;;;;;;;14.00;2.10;;;;;;;;;;5049019;28;20044;-75
2021/10/22 04:47:55;;;;;;;13.48;2.22;;;;;;;;;;5081421;28;20051;-75
2021/10/22 04:50:21;;;;;;;10.32;1.70;;;;;;;;;;5065813;28;20044;-75
2021/10/22 04:52:53;;;;;;;15.02;2.63;;;;;;;;;;5066317;28;20036;-75
2021/10/22 04:55:20;;;;;;;9.80;1.83;;;;;;;;;;5064495;28;20049;-75
2021/10/22 04:57:46;;;;;;;10.70;1.92;;;;;;;;;;5047635;28;20045;-75
2021/10/22 05:00:12;;;;;;;18.00;2.75;;;;;;;;;;5063651;28;20053;-75
2021/10/22 05:02:38;;;;;;;18.20;3.70;;;;;;;;;;5064980;28;20045;-75
2021/10/22 05:05:04;;;;;;;18.60;2.65;;;;;;;;;;5063587;28;20432;-76
2021/10/22 05:07:30;;;;;;;18.10;3.55;;;;;;;;;;5046736;28;20095;-75
2021/10/22 05:09:56;;;;;;;13.98;3.10;;;;;;;;;;5059172;28;20091;-75
2021/10/22 05:12:24;;;;;;;18.05;2.40;;;;;;;;;;5049736;28;20083;-75
2021/10/22 05:14:50;;;;;;;16.15;2.47;;;;;;;;;;5050895;28;20485;-75
2021/10/22 05:17:16;;;;;;;14.15;2.38;;;;;;;;;;5066476;28;20056;-75
2021/10/22 05:19:42;;;;;;;16.90;1.80;;;;;;;;;;5060040;28;20468;-75
2021/10/22 05:22:08;;;;;;;9.77;1.42;;;;;;;;;;5051401;28;20123;-76
2021/10/22 05:24:34;;;;;;;14.02;2.15;;;;;;;;;;5061456;28;20041;-76
2021/10/22 05:27:00;;;;;;;13.10;2.08;;;;;;;;;;5048649;28;20053;-77
2021/10/22 05:29:26;;;;;;;13.60;2.00;;;;;;;;;;5060216;28;20077;-77
2021/10/22 05:31:53;;;;;;;18.70;2.15;;;;;;;;;;5052139;28;20041;-76
2021/10/22 05:34:21;;;;;;;15.73;2.60;;;;;;;;;;5062319;28;20058;-78
2021/10/22 05:36:51;;;;;;;19.63;2.88;;;;;;;;;;5049590;28;20162;-76
2021/10/22 05:39:19;;;;;;;17.02;2.45;;;;;;;;;;5049571;28;20080;-76
2021/10/22 05:41:46;;;;;;;9.93;2.05;;;;;;;;;;5065778;28;20057;-77
2021/10/22 05:44:13;;;;;;;13.82;2.20;;;;;;;;;;5040555;28;20045;-77
2021/10/22 05:46:39;;;;;;;16.95;2.20;;;;;;;;;;5047650;28;20060;-77
2021/10/22 05:49:05;;;;;;;7.95;1.77;;;;;;;;;;5056333;28;20064;-77
2021/10/22 05:51:31;;;;;;;15.98;2.58;;;;;;;;;;5047118;28;20128;-77
2021/10/22 05:53:57;;;;;;;14.57;2.28;;;;;;;;;;5067045;28;20049;-77
2021/10/22 05:56:23;;;;;;;11.23;1.95;;;;;;;;;;5048462;28;20045;-77
2021/10/22 05:58:49;;;;;;;15.63;2.85;;;;;;;;;;5066646;28;20525;-76
2021/10/22 06:01:15;;;;;;;14.77;2.05;;;;;;;;;;5058962;28;20052;-77
2021/10/22 06:03:41;;;;;;;20.55;3.10;;;;;;;;;;5051886;28;20060;-77
2021/10/22 06:06:07;;;;;;;17.38;2.47;;;;;;;;;;5065387;28;20044;-76
2021/10/22 06:08:33;;;;;;;19.13;3.00;;;;;;;;;;5064922;28;20082;-77
2021/10/22 06:11:00;;;;;;;17.13;2.78;;;;;;;;;;5056296;28;20160;-78
2021/10/22 06:13:26;;;;;;;17.25;2.00;;;;;;;;;;5057529;28;20061;-77
2021/10/22 06:15:52;;;;;;;15.63;2.92;;;;;;;;;;5076955;28;20053;-77
2021/10/22 06:18:19;;;;;;;11.13;2.47;;;;;;;;;;5050014;28;20081;-76
2021/10/22 06:21:01;;;;;;;13.30;2.03;;;;;;;;;;5054971;28;20063;-76
2021/10/22 06:26:12;;;;;;;14.23;2.70;;;;;;;;;;5059072;28;20412;-76
2021/10/22 06:28:38;;;;;;;12.82;2.22;;;;;;;;;;5047768;28;20396;-79
2021/10/22 06:31:04;;;;;;;20.63;2.95;;;;;;;;;;5048647;28;20468;-75
2021/10/22 06:33:30;;;;;;;14.43;2.53;;;;;;;;;;5046367;28;20045;-75
2021/10/22 06:35:56;;;;;;;17.73;3.25;;;;;;;;;;5052340;28;20052;-75
2021/10/22 06:38:23;;;;;;;23.33;3.47;;;;;;;;;;5065311;28;20056;-75
2021/10/22 06:40:53;;;;;;;14.80;2.90;;;;;;;;;;5080105;28;20143;-79
2021/10/22 06:43:20;;;;;;;20.23;2.60;;;;;;;;;;5048831;28;20080;-77
2021/10/22 06:45:47;;;;;;;21.95;4.22;;;;;;;;;;5040153;28;20057;-79
2021/10/22 06:48:13;;;;;;;18.58;2.70;;;;;;;;;;5044413;28;20610;-78
2021/10/22 06:50:39;;;;;;;16.52;2.60;;;;;;;;;;5025413;28;20511;-77
2021/10/22 06:53:05;;;;;;;26.25;3.35;;;;;;;;;;5052484;28;20045;-78
2021/10/22 06:55:31;;;;;;;20.65;3.42;;;;;;;;;;5067532;28;20037;-77
2021/10/22 06:57:57;;;;;;;25.05;2.95;;;;;;;;;;5064627;28;20137;-77
2021/10/22 07:00:23;;;;;;;17.02;3.15;;;;;;;;;;5048834;28;20091;-77
2021/10/22 07:02:53;;;;;;;21.80;2.72;;;;;;;;;;5050512;28;20060;-78
2021/10/22 07:07:58;;;;;;;25.98;3.08;;;;;;;;;;5062129;28;20057;-78
2021/10/22 07:10:24;;;;;;;20.70;3.13;;;;;;;;;;5075490;28;20048;-80
2021/10/22 07:12:51;;;;;;;21.77;3.88;;;;;;;;;;5056062;28;20459;-78
2021/10/22 07:15:17;;;;;;;22.65;3.08;;;;;;;;;;5064915;28;20443;-78
2021/10/22 07:17:45;;;;;;;18.70;3.28;;;;;;;;;;5046392;28;20464;-77
2021/10/22 07:20:12;;;;;;;18.13;2.92;;;;;;;;;;5074756;28;20439;-76
2021/10/22 07:22:47;;;;;;;25.00;3.55;;;;;;;;;;5034112;28;20045;-76
2021/10/22 07:25:13;;;;;;;14.45;2.50;;;;;;;;;;5058446;28;20053;-76
2021/10/22 07:27:40;;;;;;;10.70;2.17;;;;;;;;;;5053190;28;20048;-76
2021/10/22 07:30:06;;;;;;;12.50;2.17;;;;;;;;;;5067086;28;20072;-77
2021/10/22 07:32:32;;;;;;;7.95;1.73;;;;;;;;;;5065983;28;20064;-76
2021/10/22 07:34:59;;;;;;;12.25;1.77;;;;;;;;;;5054974;28;20080;-77
2021/10/22 07:37:25;;;;;;;5.45;1.40;;;;;;;;;;5056338;28;20038;-77
2021/10/22 07:39:51;;;;;;;15.13;1.30;;;;;;;;;;5072201;28;20041;-78
2021/10/22 07:42:18;;;;;;;6.65;1.42;;;;;;;;;;5041946;28;20092;-77
2021/10/22 07:44:44;;;;;;;4.03;0.90;;;;;;;;;;5046585;28;20064;-76
2021/10/22 07:47:10;;;;;;;7.50;1.23;;;;;;;;;;5062788;28;20049;-75
2021/10/22 07:49:36;;;;;;;9.10;1.92;;;;;;;;;;5045794;28;20128;-76
2021/10/22 07:52:02;;;;;;;5.88;1.23;;;;;;;;;;5061899;28;20549;-75
2021/10/22 07:54:28;;;;;;;11.82;1.27;;;;;;;;;;5062577;28;20045;-76
2021/10/22 07:56:55;;;;;;;8.05;1.60;;;;;;;;;;5073672;28;20067;-76
2021/10/22 07:59:21;;;;;;;9.23;2.03;;;;;;;;;;5047138;28;20053;-76
2021/10/22 08:01:47;;;;;;;12.15;1.98;;;;;;;;;;5067222;28;20038;-76
2021/10/22 08:04:13;;;;;;;12.35;2.22;;;;;;;;;;5069353;28;20050;-76
2021/10/22 08:06:40;;;;;;;14.73;2.13;;;;;;;;;;5054775;28;20045;-75
2021/10/22 08:09:06;;;;;;;13.23;2.05;;;;;;;;;;5058809;28;20056;-76
2021/10/22 08:11:32;;;;;;;10.13;1.83;;;;;;;;;;5075224;28;20515;-76
2021/10/22 08:13:58;;;;;;;15.60;2.70;;;;;;;;;;5048484;28;20061;-76
2021/10/22 08:16:25;;;;;;;10.75;2.10;;;;;;;;;;5078247;28;20056;-76
2021/10/22 08:18:51;;;;;;;20.13;2.55;;;;;;;;;;5053791;28;20719;-76
2021/10/22 08:21:22;;;;;;;18.73;2.30;;;;;;;;;;5043785;28;20048;-77
2021/10/22 08:23:49;;;;;;;17.17;2.88;;;;;;;;;;5064302;28;20052;-76
2021/10/22 08:26:16;;;;;;;18.98;3.63;;;;;;;;;;5076286;28;20087;-77
2021/10/22 08:28:43;;;;;;;15.52;3.00;;;;;;;;;;5066053;28;20048;-77
2021/10/22 08:31:09;;;;;;;24.65;2.78;;;;;;;;;;5074578;28;20059;-76
2021/10/22 08:33:36;;;;;;;19.13;3.08;;;;;;;;;;5069247;28;20511;-76
2021/10/22 08:36:03;;;;;;;15.98;3.15;;;;;;;;;;5062166;28;20057;-76
2021/10/22 08:38:30;;;;;;;14.25;2.40;;;;;;;;;;5070393;28;20045;-76
2021/10/22 08:40:57;;;;;;;19.27;2.97;;;;;;;;;;5057321;28;20408;-75
2021/10/22 08:43:25;;;;;;;18.10;2.65;;;;;;;;;;5049809;28;20048;-75
2021/10/22 08:45:53;;;;;;;23.58;4.50;;;;;;;;;;5051686;28;20485;-76
2021/10/22 08:48:19;;;;;;;16.55;2.72;;;;;;;;;;5053620;28;20045;-75
2021/10/22 08:50:46;;;;;;;17.55;2.72;;;;;;;;;;5072889;28;20550;-75
2021/10/22 08:53:12;;;;;;;18.98;2.40;;;;;;;;;;5049973;28;20497;-76
2021/10/22 08:55:38;;;;;;;17.65;3.17;;;;;;;;;;5050576;28;20052;-76
2021/10/22 08:58:04;;;;;;;12.68;1.90;;;;;;;;;;5063390;28;20048;-76
2021/10/22 09:00:30;;;;;;;21.92;3.92;;;;;;;;;;5034415;28;20127;-76
2021/10/22 09:03:10;;;;;;;14.95;2.47;;;;;;;;;;5049691;28;20227;-75
2021/10/22 09:05:36;;;;;;;13.25;2.00;;;;;;;;;;5049910;28;20519;-75
2021/10/22 09:08:06;;;;;;;11.98;1.92;;;;;;;;;;5083146;28;20132;-76
2021/10/22 09:10:33;;;;;;;10.05;2.00;;;;;;;;;;5066868;28;20397;-75
2021/10/22 09:13:03;;;;;;;9.68;1.80;;;;;;;;;;5053818;28;20050;-76
2021/10/22 09:15:38;;;;;;;11.10;1.63;;;;;;;;;;5066356;28;20053;-75
2021/10/22 09:18:13;;;;;;;15.55;2.33;;;;;;;;;;5050149;28;20045;-75
2021/10/22 09:20:53;;;;;;;17.08;3.22;;;;;;;;;;5056109;28;20077;-75
2021/10/22 09:23:41;;;;;;;13.98;2.28;;;;;;;;;;5077725;28;20152;-76
2021/10/22 09:26:14;;;;;;;18.27;2.67;;;;;;;;;;5047917;28;20123;-76
2021/10/22 09:28:40;;;;;;;15.45;2.65;;;;;;;;;;5059115;28;20045;-76
2021/10/22 09:31:14;;;;;;;19.77;3.55;;;;;;;;;;5048955;28;20052;-75
2021/10/22 09:34:00;;;;;;;15.80;2.80;;;;;;;;;;5071546;28;20107;-75
2021/10/22 09:36:42;;;;;;;22.60;3.90;;;;;;;;;;5066616;28;20076;-75
2021/10/22 09:39:13;;;;;;;25.00;3.80;;;;;;;;;;5063873;28;20080;-75
2021/10/22 09:41:40;;;;;;;27.35;4.00;;;;;;;;;;5067282;28;20060;-75
2021/10/22 09:44:23;;;;;;;22.70;3.20;;;;;;;;;;5050795;28;20369;-76
2021/10/22 09:46:50;;;;;;;16.40;3.00;;;;;;;;;;5054773;28;20381;-78
2021/10/22 09:49:27;;;;;;;19.98;3.08;;;;;;;;;;5063077;28;20057;-76
2021/10/22 09:51:55;;;;;;;18.20;2.33;;;;;;;;;;5064383;28;20052;-77
2021/10/22 09:54:27;;;;;;;18.20;2.70;;;;;;;;;;5040345;28;20397;-76
2021/10/22 09:56:54;;;;;;;17.70;2.67;;;;;;;;;;5065728;28;20061;-76
2021/10/22 09:59:25;;;;;;;16.60;2.20;;;;;;;;;;5032386;28;20049;-77
2021/10/22 10:01:54;;;;;;;9.35;1.50;;;;;;;;;;5049919;28;20056;-77
2021/10/22 10:04:23;;;;;;;14.45;1.80;;;;;;;;;;5049132;28;20053;-77
2021/10/22 10:06:50;;;;;;;8.57;1.15;;;;;;;;;;5071974;28;20048;-78
2021/10/22 10:09:17;;;;;;;15.30;2.03;;;;;;;;;;5054799;28;20136;-77
2021/10/22 10:11:44;;;;;;;8.60;1.20;;;;;;;;;;5057599;28;20808;-76
2021/10/22 10:14:14;;;;;;;12.32;1.42;;;;;;;;;;5056919;28;20077;-76
2021/10/22 10:16:41;;;;;;;15.23;1.65;;;;;;;;;;5065311;28;20179;-76
2021/10/22 10:19:08;;;;;;;9.98;1.63;;;;;;;;;;5078483;28;20072;-76
2021/10/22 10:21:36;;;;;;;9.23;1.60;;;;;;;;;;5066505;28;20133;-76
2021/10/22 10:24:02;;;;;;;14.93;1.95;;;;;;;;;;5065574;28;20049;-77
2021/10/22 10:26:30;;;;;;;16.35;2.28;;;;;;;;;;5068928;28;20049;-77
2021/10/22 10:28:59;;;;;;;15.85;2.03;;;;;;;;;;5064390;28;20055;-77
2021/10/22 10:31:27;;;;;;;9.38;1.50;;;;;;;;;;5060616;28;20495;-76
2021/10/22 10:33:55;;;;;;;16.02;2.45;;;;;;;;;;5048724;28;20049;-76
2021/10/22 10:36:39;;;;;;;13.70;1.77;;;;;;;;;;5057641;28;20531;-76
2021/10/22 10:39:06;;;;;;;16.85;1.88;;;;;;;;;;5040244;28;20050;-76
2021/10/22 10:41:35;;;;;;;19.25;2.75;;;;;;;;;;5064943;28;20485;-76
2021/10/22 10:44:20;;;;;;;11.70;1.80;;;;;;;;;;5070869;28;20097;-76
2021/10/22 10:46:46;;;;;;;16.98;1.88;;;;;;;;;;5064405;28;20064;-76
2021/10/22 10:49:32;;;;;;;11.60;2.75;;;;;;;;;;5054229;28;20048;-76
2021/10/22 10:51:58;;;;;;;12.73;2.70;;;;;;;;;;5061699;28;20095;-76
2021/10/22 10:54:27;;;;;;;21.23;3.05;;;;;;;;;;5060848;28;20507;-76
2021/10/22 10:56:53;;;;;;;15.90;2.20;;;;;;;;;;5060442;28;20485;-76
2021/10/22 10:59:38;;;;;;;17.38;2.55;;;;;;;;;;5050797;28;20049;-76
2021/10/22 11:02:04;;;;;;;18.52;2.65;;;;;;;;;;5071530;28;20131;-76
2021/10/22 11:04:47;;;;;;;20.92;2.83;;;;;;;;;;5055825;28;20072;-76
2021/10/22 11:07:33;;;;;;;12.98;2.42;;;;;;;;;;5063588;28;20063;-75
2021/10/22 11:10:00;;;;;;;22.38;3.38;;;;;;;;;;5049158;28;20099;-76
2021/10/22 11:12:26;;;;;;;15.02;2.20;;;;;;;;;;5048102;28;20065;-76
2021/10/22 11:14:58;;;;;;;14.05;1.60;;;;;;;;;;5037780;28;20103;-76
2021/10/22 11:17:28;;;;;;;13.27;2.15;;;;;;;;;;5059480;28;20041;-75
2021/10/22 11:20:00;;;;;;;15.43;2.80;;;;;;;;;;5045083;28;20045;-75
2021/10/22 11:22:28;;;;;;;13.40;2.10;;;;;;;;;;5035255;28;20051;-75
2021/10/22 11:24:54;;;;;;;16.58;1.90;;;;;;;;;;5058344;28;20044;-74
2021/10/22 11:27:22;;;;;;;13.10;1.52;;;;;;;;;;5050091;28;20087;-75
2021/10/22 11:29:49;;;;;;;7.70;1.52;;;;;;;;;;5054501;28;20034;-75
2021/10/22 11:32:16;;;;;;;13.85;2.28;;;;;;;;;;5067293;28;20083;-75
2021/10/22 11:34:46;;;;;;;9.27;1.33;;;;;;;;;;5053240;28;20124;-76
2021/10/22 11:37:15;;;;;;;15.52;2.40;;;;;;;;;;5047481;28;20056;-75
2021/10/22 11:39:50;;;;;;;14.02;2.58;;;;;;;;;;5038219;28;20042;-76
2021/10/22 11:42:16;;;;;;;16.30;2.30;;;;;;;;;;5063707;28;20110;-75
2021/10/22 11:44:57;;;;;;;18.50;2.10;;;;;;;;;;5074012;28;20468;-75
2021/10/22 11:47:30;;;;;;;20.55;2.92;;;;;;;;;;5047362;28;20124;-75
2021/10/22 11:49:56;;;;;;;14.48;2.45;;;;;;;;;;5069733;28;20049;-75
2021/10/22 11:52:22;;;;;;;12.77;2.10;;;;;;;;;;5079018;28;20041;-75
2021/10/22 11:54:52;;;;;;;15.13;2.28;;;;;;;;;;5039893;28;20041;-75
2021/10/22 11:57:24;;;;;;;10.95;2.85;;;;;;;;;;5046834;28;20099;-75
2021/10/22 11:59:52;;;;;;;16.08;2.13;;;;;;;;;;5069109;28;20045;-75
2021/10/22 12:02:19;;;;;;;10.57;1.88;;;;;;;;;;5063569;28;20053;-76
2021/10/22 12:04:46;;;;;;;13.77;2.20;;;;;;;;;;5065943;28;20492;-75
2021/10/22 12:07:12;;;;;;;11.60;1.92;;;;;;;;;;5063706;28;20046;-75
2021/10/22 12:09:40;;;;;;;15.55;2.08;;;;;;;;;;5048571;28;20492;-75
2021/10/22 12:12:10;;;;;;;14.85;2.30;;;;;;;;;;5046026;28;20049;-75
2021/10/22 12:14:38;;;;;;;18.40;2.10;;;;;;;;;;5052222;28;20040;-74
2021/10/22 12:17:05;;;;;;;16.40;3.10;;;;;;;;;;5064298;28;20045;-75
2021/10/22 12:19:32;;;;;;;15.43;2.28;;;;;;;;;;5064412;28;20045;-74
2021/10/22 12:21:58;;;;;;;25.42;2.60;;;;;;;;;;5050111;28;20053;-75
2021/10/22 12:24:25;;;;;;;11.48;2.13;;;;;;;;;;5075201;28;20049;-75
2021/10/22 12:27:04;;;;;;;13.27;2.00;;;;;;;;;;5062657;28;20042;-75
2021/10/22 12:29:44;;;;;;;12.80;1.77;;;;;;;;;;5055018;28;20053;-75
2021/10/22 12:32:10;;;;;;;13.50;2.03;;;;;;;;;;5053410;28;20107;-75
2021/10/22 12:34:36;;;;;;;10.48;1.88;;;;;;;;;;5051445;28;20045;-73
2021/10/22 12:37:10;;;;;;;13.63;1.77;;;;;;;;;;5046908;28;20048;-73
2021/10/22 12:39:41;;;;;;;11.38;1.85;;;;;;;;;;5058663;28;20053;-73
2021/10/22 12:42:20;;;;;;;8.13;1.58;;;;;;;;;;5050977;28;20045;-74
2021/10/22 12:44:46;;;;;;;15.45;1.60;;;;;;;;;;5049898;28;20131;-74
2021/10/22 12:47:12;;;;;;;11.70;1.98;;;;;;;;;;5070825;28;20045;-73
2021/10/22 12:49:38;;;;;;;14.85;1.85;;;;;;;;;;5058807;28;20068;-75
2021/10/22 12:52:05;;;;;;;14.50;1.88;;;;;;;;;;5053611;28;20393;-74
2021/10/22 12:54:45;;;;;;;12.45;2.20;;;;;;;;;;5032901;28;20548;-73
2021/10/22 12:57:20;;;;;;;10.88;2.28;;;;;;;;;;5063044;28;20061;-74
2021/10/22 12:59:46;;;;;;;15.38;2.50;;;;;;;;;;5066507;28;21771;-74
2021/10/22 13:02:30;;;;;;;16.90;2.17;;;;;;;;;;5050422;28;20132;-75
2021/10/22 13:04:56;;;;;;;;;;;;;;;;;;5051514;28;20048;-74
2021/10/22 13:07:34;;;;;;;16.85;2.63;;;;;;;;;;5077542;28;19970;-74
2021/10/22 13:10:20;;;;;;;14.10;2.38;;;;;;;;;;5068431;28;20501;-74
2021/10/22 13:13:03;;;;;;;15.02;2.38;;;;;;;;;;5049778;28;20489;-74
2021/10/22 13:20:47;;;;;;;11.02;2.78;;;;;;;;;;5060686;28;20076;-74
2021/10/22 13:23:15;;;;;;;11.40;1.52;;;;;;;;;;5063082;28;20044;-74
2021/10/22 13:25:42;;;;;;;9.20;1.80;;;;;;;;;;5063023;28;20053;-74
2021/10/22 13:28:09;;;;;;;11.63;1.77;;;;;;;;;;5048961;28;20128;-75
2021/10/22 13:30:42;;;;;;;11.63;1.60;;;;;;;;;;5049583;28;20061;-74
2021/10/22 13:33:14;;;;;;;7.18;1.55;;;;;;;;;;5065559;28;20428;-75
2021/10/22 13:35:40;;;;;;;17.98;2.15;;;;;;;;;;5040550;28;20055;-74
2021/10/22 13:38:09;;;;;;;9.65;1.75;;;;;;;;;;5058290;28;20049;-74
2021/10/22 13:40:35;;;;;;;10.35;1.80;;;;;;;;;;5050724;28;20068;-75
2021/10/22 13:43:01;;;;;;;6.57;1.30;;;;;;;;;;5056334;28;20475;-74
2021/10/22 13:45:27;;;;;;;8.50;2.03;;;;;;;;;;5051078;28;20404;-75
2021/10/22 13:47:53;;;;;;;10.35;1.80;;;;;;;;;;5061470;28;20049;-73
2021/10/22 13:50:20;;;;;;;17.15;2.72;;;;;;;;;;5053360;28;20057;-74
2021/10/22 13:52:46;;;;;;;7.05;1.52;;;;;;;;;;5066007;28;20087;-74
2021/10/22 13:55:12;;;;;;;10.57;2.80;;;;;;;;;;5022961;28;20048;-74
2021/10/22 13:57:38;;;;;;;9.43;1.50;;;;;;;;;;5049307;28;20442;-74
2021/10/22 14:00:05;;;;;;;13.32;2.05;;;;;;;;;;5065827;28;20124;-74
2021/10/22 14:02:31;;;;;;;13.82;2.17;;;;;;;;;;5058834;28;20464;-75
2021/10/22 14:04:57;;;;;;;15.35;2.42;;;;;;;;;;5047137;28;20057;-74
2021/10/22 14:07:23;;;;;;;15.55;2.13;;;;;;;;;;5079853;28;20045;-74
2021/10/22 14:09:54;;;;;;;15.75;2.65;;;;;;;;;;5056098;28;20045;-73
2021/10/22 14:12:25;;;;;;;14.35;2.05;;;;;;;;;;5075224;28;20053;-74
2021/10/22 14:15:00;;;;;;;15.98;2.72;;;;;;;;;;5062119;28;20435;-75
2021/10/22 14:30:51;;;;;;;18.05;3.05;;;;;;;;;;5060264;28;20094;-75
2021/10/22 14:33:17;;;;;;;11.80;2.15;;;;;;;;;;5044654;28;20144;-74
2021/10/22 14:35:44;;;;;;;19.73;2.78;;;;;;;;;;5037343;28;20612;-74
2021/10/22 14:38:10;;;;;;;11.68;2.53;;;;;;;;;;5070524;28;20509;-74
2021/10/22 14:40:37;;;;;;;15.18;2.00;;;;;;;;;;5065590;28;20508;-74
2021/10/22 14:43:05;;;;;;;14.35;2.55;;;;;;;;;;5060679;28;20032;-74
2021/10/22 14:48:13;;;;;;;12.95;2.03;;;;;;;;;;5049777;28;20105;-76
2021/10/22 14:50:42;;;;;;;11.73;1.92;;;;;;;;;;5064506;28;20099;-75
2021/10/22 14:55:44;;;;;;;7.97;1.52;;;;;;;;;;5061617;28;20154;-75
2021/10/22 14:58:11;;;;;;;7.95;1.30;;;;;;;;;;5074688;28;20052;-77
2021/10/22 15:00:37;;;;;;;11.00;1.85;;;;;;;;;;5077365;28;20400;-77
2021/10/22 15:03:08;;;;;;;11.85;1.52;;;;;;;;;;5060587;28;20073;-77
2021/10/22 15:05:35;;;;;;;11.25;1.80;;;;;;;;;;5060783;28;20310;-74
2021/10/22 15:08:01;;;;;;;14.02;2.30;;;;;;;;;;5074841;28;20455;-75